createdAt,value
2022-11-15T00:01:58.462Z,22.12
2022-11-15T00:04:03.035Z,22.11
2022-11-15T00:06:07.388Z,22.1
2022-11-15T00:08:11.789Z,22.09
2022-11-15T00:10:16.423Z,22.08
2022-11-15T00:12:20.796Z,22.07
2022-11-15T00:14:25.201Z,22.06
2022-11-15T00:16:29.585Z,22.06
2022-11-15T00:18:34.127Z,22.03
2022-11-15T00:20:38.536Z,22.02
2022-11-15T00:22:42.894Z,22
2022-11-15T00:24:47.270Z,21.99
2022-11-15T00:26:51.632Z,21.97
2022-11-15T00:28:56.017Z,21.95
2022-11-15T00:31:00.362Z,21.94
2022-11-15T00:33:04.742Z,21.92
2022-11-15T00:35:09.112Z,21.91
2022-11-15T00:37:13.497Z,21.89
2022-11-15T00:39:17.810Z,21.88
2022-11-15T00:41:22.228Z,21.87
2022-11-15T00:43:26.565Z,21.86
2022-11-15T00:45:31.540Z,21.85
2022-11-15T00:47:35.952Z,21.85
2022-11-15T00:49:40.350Z,21.83
2022-11-15T00:51:44.695Z,21.82
2022-11-15T00:53:49.119Z,21.81
2022-11-15T00:55:53.477Z,21.79
2022-11-15T00:57:57.875Z,21.8
2022-11-15T01:00:02.244Z,21.8
2022-11-15T01:02:06.603Z,21.8
2022-11-15T01:04:10.966Z,21.8
2022-11-15T01:06:15.326Z,21.8
2022-11-15T01:08:19.820Z,21.79
2022-11-15T01:10:24.177Z,21.78
2022-11-15T01:12:28.528Z,21.78
2022-11-15T01:14:32.922Z,21.76
2022-11-15T01:16:37.314Z,21.75
2022-11-15T01:18:41.689Z,21.73
2022-11-15T01:20:46.030Z,21.73
2022-11-15T01:22:50.373Z,21.71
2022-11-15T01:24:54.741Z,21.71
2022-11-15T01:26:59.116Z,21.71
2022-11-15T01:29:03.661Z,21.71
2022-11-15T01:31:08.094Z,21.72
2022-11-15T01:33:12.466Z,21.71
2022-11-15T01:35:16.834Z,21.7
2022-11-15T01:37:21.191Z,21.7
2022-11-15T01:39:25.538Z,21.69
2022-11-15T01:41:29.908Z,21.69
2022-11-15T01:43:34.538Z,21.68
2022-11-15T01:45:39.094Z,21.68
2022-11-15T01:47:43.437Z,21.67
2022-11-15T01:49:47.861Z,21.66
2022-11-15T01:51:52.265Z,21.64
2022-11-15T01:53:56.597Z,21.65
2022-11-15T01:56:01.002Z,21.64
2022-11-15T01:58:05.421Z,21.63
2022-11-15T02:00:09.776Z,21.62
2022-11-15T02:02:14.153Z,21.61
2022-11-15T02:04:18.515Z,21.61
2022-11-15T02:06:22.893Z,21.61
2022-11-15T02:08:27.279Z,21.6
2022-11-15T02:10:31.654Z,21.58
2022-11-15T02:12:36.027Z,21.55
2022-11-15T02:14:40.379Z,21.53
2022-11-15T02:16:44.755Z,21.5
2022-11-15T02:18:49.118Z,21.48
2022-11-15T02:20:53.511Z,21.46
2022-11-15T02:22:57.885Z,21.44
2022-11-15T02:25:02.367Z,21.43
2022-11-15T02:27:06.752Z,21.43
2022-11-15T02:29:11.120Z,21.42
2022-11-15T02:31:15.502Z,21.4
2022-11-15T02:33:19.833Z,21.39
2022-11-15T02:35:24.230Z,21.38
2022-11-15T02:37:28.608Z,21.37
2022-11-15T02:39:32.959Z,21.36
2022-11-15T02:41:37.449Z,21.34
2022-11-15T02:43:41.897Z,21.34
2022-11-15T02:45:46.239Z,21.32
2022-11-15T02:47:50.580Z,21.31
2022-11-15T02:49:54.941Z,21.3
2022-11-15T02:51:59.392Z,21.3
2022-11-15T02:54:03.796Z,21.29
2022-11-15T02:56:08.145Z,21.27
2022-11-15T02:58:12.487Z,21.25
2022-11-15T03:00:16.871Z,21.24
2022-11-15T03:02:21.204Z,21.22
2022-11-15T03:04:25.568Z,21.2
2022-11-15T03:06:29.929Z,21.19
2022-11-15T03:08:34.272Z,21.18
2022-11-15T03:10:38.666Z,21.16
2022-11-15T03:12:43.038Z,21.15
2022-11-15T03:14:47.459Z,21.13
2022-11-15T03:16:51.814Z,21.11
2022-11-15T03:18:56.217Z,21.11
2022-11-15T03:21:00.745Z,21.11
2022-11-15T03:23:05.122Z,21.11
2022-11-15T03:25:09.521Z,21.1
2022-11-15T03:27:13.926Z,21.09
2022-11-15T03:29:18.350Z,21.07
2022-11-15T03:31:22.698Z,21.06
2022-11-15T03:33:27.130Z,21.06
2022-11-15T03:35:32.294Z,21.05
2022-11-15T03:37:36.638Z,21.04
2022-11-15T03:39:41.008Z,21.04
2022-11-15T03:41:45.364Z,21.03
2022-11-15T03:43:49.701Z,21.02
2022-11-15T03:45:54.064Z,21.01
2022-11-15T03:47:58.421Z,21.01
2022-11-15T03:50:02.770Z,21
2022-11-15T03:52:07.128Z,20.99
2022-11-15T03:54:11.497Z,20.98
2022-11-15T03:56:15.873Z,20.97
2022-11-15T03:58:20.224Z,20.97
2022-11-15T04:00:24.598Z,20.96
2022-11-15T04:02:29.008Z,20.94
2022-11-15T04:04:33.372Z,20.94
2022-11-15T04:06:37.754Z,20.93
2022-11-15T04:08:42.257Z,20.92
2022-11-15T04:10:46.690Z,20.91
2022-11-15T04:12:51.282Z,20.9
2022-11-15T04:14:55.634Z,20.89
2022-11-15T04:17:00.030Z,20.89
2022-11-15T04:19:04.393Z,20.88
2022-11-15T04:21:08.784Z,20.88
2022-11-15T04:23:13.170Z,20.87
2022-11-15T04:25:22.045Z,20.86
2022-11-15T04:27:35.089Z,20.84
2022-11-15T04:29:39.492Z,20.84
2022-11-15T04:31:43.840Z,20.82
2022-11-15T04:33:48.185Z,20.8
2022-11-15T04:35:52.551Z,20.78
2022-11-15T04:37:56.915Z,20.76
2022-11-15T04:40:01.251Z,20.74
2022-11-15T04:42:05.670Z,20.72
2022-11-15T04:44:10.048Z,20.71
2022-11-15T04:46:14.417Z,20.71
2022-11-15T04:48:18.792Z,20.69
2022-11-15T04:50:23.114Z,20.69
2022-11-15T04:52:27.473Z,20.69
2022-11-15T04:54:31.848Z,20.68
2022-11-15T04:56:36.209Z,20.67
2022-11-15T04:58:40.629Z,20.65
2022-11-15T05:00:45.081Z,20.65
2022-11-15T05:02:49.664Z,20.63
2022-11-15T05:04:54.010Z,20.62
2022-11-15T05:06:58.419Z,20.61
2022-11-15T05:09:03.052Z,20.59
2022-11-15T05:11:07.431Z,20.58
2022-11-15T05:13:11.814Z,20.57
2022-11-15T05:15:16.161Z,20.56
2022-11-15T05:17:20.544Z,20.55
2022-11-15T05:19:24.930Z,20.53
2022-11-15T05:21:29.321Z,20.53
2022-11-15T05:23:34.137Z,20.53
2022-11-15T05:25:38.703Z,20.52
2022-11-15T05:27:43.085Z,20.52
2022-11-15T05:29:47.457Z,20.5
2022-11-15T05:31:51.807Z,20.5
2022-11-15T05:33:56.172Z,20.48
2022-11-15T05:36:00.642Z,20.47
2022-11-15T05:38:05.155Z,20.47
2022-11-15T05:40:09.769Z,20.46
2022-11-15T05:42:14.122Z,20.45
2022-11-15T05:44:18.501Z,20.44
2022-11-15T05:46:22.889Z,20.43
2022-11-15T05:48:27.239Z,20.42
2022-11-15T05:50:31.625Z,20.4
2022-11-15T05:52:35.996Z,20.4
2022-11-15T05:54:40.427Z,20.4
2022-11-15T05:56:44.813Z,20.4
2022-11-15T05:58:49.217Z,20.39
2022-11-15T06:00:58.050Z,20.4
2022-11-15T06:03:02.390Z,20.39
2022-11-15T06:05:06.763Z,20.39
2022-11-15T06:07:11.162Z,20.39
2022-11-15T06:09:15.719Z,20.39
2022-11-15T06:11:20.111Z,20.39
2022-11-15T06:13:24.474Z,20.42
2022-11-15T06:15:28.890Z,20.48
2022-11-15T06:17:33.289Z,20.58
2022-11-15T06:19:37.653Z,20.67
2022-11-15T06:21:42.035Z,20.78
2022-11-15T06:23:46.406Z,20.88
2022-11-15T06:25:50.769Z,20.96
2022-11-15T06:27:55.138Z,21.02
2022-11-15T06:29:59.496Z,21.09
2022-11-15T06:32:03.911Z,21.16
2022-11-15T06:34:08.284Z,21.24
2022-11-15T06:36:17.209Z,21.33
2022-11-15T06:38:21.912Z,21.42
2022-11-15T06:40:26.270Z,21.52
2022-11-15T06:42:30.662Z,21.61
2022-11-15T06:44:35.004Z,21.68
2022-11-15T06:46:39.393Z,21.75
2022-11-15T06:48:43.840Z,21.8
2022-11-15T06:50:48.224Z,21.86
2022-11-15T06:52:52.579Z,21.89
2022-11-15T06:54:56.959Z,21.93
2022-11-15T06:57:01.346Z,21.96
2022-11-15T06:59:05.747Z,21.98
2022-11-15T07:01:10.204Z,22
2022-11-15T07:03:14.746Z,22.01
2022-11-15T07:05:19.063Z,22.03
2022-11-15T07:07:23.492Z,22.06
2022-11-15T07:09:28.182Z,22.08
2022-11-15T07:11:32.581Z,22.08
2022-11-15T07:13:37.036Z,22.09
2022-11-15T07:15:41.480Z,22.1
2022-11-15T07:17:45.871Z,22.11
2022-11-15T07:19:50.248Z,22.13
2022-11-15T07:21:54.693Z,22.13
2022-11-15T07:23:59.080Z,22.15
2022-11-15T07:26:03.490Z,22.16
2022-11-15T07:28:08.432Z,22.18
2022-11-15T07:30:15.476Z,22.18
2022-11-15T07:32:20.114Z,22.19
2022-11-15T07:34:24.463Z,22.18
2022-11-15T07:36:28.813Z,22.19
2022-11-15T07:38:34.895Z,22.18
2022-11-15T07:40:46.049Z,22.16
2022-11-15T07:42:50.520Z,22.15
2022-11-15T07:44:54.891Z,22.14
2022-11-15T07:46:59.283Z,22.13
2022-11-15T07:49:03.751Z,22.13
2022-11-15T07:51:12.851Z,22.13
2022-11-15T07:53:18.387Z,22.13
2022-11-15T07:55:22.680Z,22.14
2022-11-15T07:57:27.055Z,22.18
2022-11-15T07:59:31.469Z,22.2
2022-11-15T08:01:35.981Z,22.21
2022-11-15T08:03:40.729Z,22.22
2022-11-15T08:05:45.238Z,22.24
2022-11-15T08:07:51.821Z,22.24
2022-11-15T08:09:57.048Z,22.25
2022-11-15T08:12:01.413Z,22.26
2022-11-15T08:14:05.786Z,22.26
2022-11-15T08:16:10.240Z,22.27
2022-11-15T08:18:14.707Z,22.27
2022-11-15T08:20:19.118Z,22.28
2022-11-15T08:22:23.510Z,22.29
2022-11-15T08:24:27.903Z,22.29
2022-11-15T08:26:32.267Z,22.31
2022-11-15T08:28:36.691Z,22.32
2022-11-15T08:30:41.079Z,22.32
2022-11-15T08:32:45.692Z,22.33
2022-11-15T08:34:50.046Z,22.34
2022-11-15T08:36:54.454Z,22.35
2022-11-15T08:38:58.839Z,22.36
2022-11-15T08:41:03.211Z,22.37
2022-11-15T08:43:07.588Z,22.38
2022-11-15T08:45:11.932Z,22.39
2022-11-15T08:47:16.311Z,22.4
2022-11-15T08:49:20.695Z,22.41
2022-11-15T08:51:25.079Z,22.42
2022-11-15T08:53:29.462Z,22.43
2022-11-15T08:55:33.816Z,22.44
2022-11-15T08:57:38.258Z,22.45
2022-11-15T08:59:42.678Z,22.46
2022-11-15T09:01:47.235Z,22.44
2022-11-15T09:03:51.897Z,22.46
2022-11-15T09:05:56.259Z,22.47
2022-11-15T09:08:00.820Z,22.48
2022-11-15T09:10:48.421Z,22.51
2022-11-15T09:12:52.857Z,22.53
2022-11-15T09:14:57.267Z,22.56
2022-11-15T09:17:01.634Z,22.57
2022-11-15T09:19:11.432Z,22.6
2022-11-15T09:21:16.128Z,22.62
2022-11-15T09:23:20.538Z,22.63
2022-11-15T09:25:24.914Z,22.65
2022-11-15T09:27:29.303Z,22.66
2022-11-15T09:29:33.713Z,22.69
2022-11-15T09:31:38.114Z,22.72
2022-11-15T09:33:42.528Z,22.75
2022-11-15T09:35:46.894Z,22.76
2022-11-15T09:37:56.082Z,22.78
2022-11-15T09:40:00.695Z,22.8
2022-11-15T09:42:05.041Z,22.81
2022-11-15T09:44:09.445Z,22.83
2022-11-15T09:46:13.878Z,22.84
2022-11-15T09:48:18.314Z,22.87
2022-11-15T09:50:22.702Z,22.88
2022-11-15T09:52:27.082Z,22.89
2022-11-15T09:54:53.150Z,22.91
2022-11-15T09:56:59.662Z,22.92
2022-11-15T09:59:04.037Z,22.94
2022-11-15T10:01:08.422Z,22.96
2022-11-15T10:03:13.126Z,22.97
2022-11-15T10:05:17.573Z,22.99
2022-11-15T10:07:22.312Z,23
2022-11-15T10:09:26.930Z,23.02
2022-11-15T10:11:39.570Z,23.04
2022-11-15T10:13:44.186Z,23.06
2022-11-15T10:15:48.587Z,23.08
2022-11-15T10:17:53.130Z,23.1
2022-11-15T10:20:01.077Z,23.11
2022-11-15T10:22:09.436Z,23.13
2022-11-15T10:24:13.832Z,23.14
2022-11-15T10:26:18.199Z,23.16
2022-11-15T10:28:22.612Z,23.19
2022-11-15T10:30:26.979Z,23.2
2022-11-15T10:32:31.375Z,23.22
2022-11-15T10:34:35.877Z,23.23
2022-11-15T10:36:43.866Z,23.25
2022-11-15T10:38:53.732Z,23.27
2022-11-15T10:40:58.093Z,23.28
2022-11-15T10:43:02.599Z,23.29
2022-11-15T10:45:06.900Z,23.3
2022-11-15T10:47:11.212Z,23.33
2022-11-15T10:49:15.538Z,23.33
2022-11-15T10:51:19.854Z,23.35
2022-11-15T10:53:24.225Z,23.37
2022-11-15T10:55:28.458Z,23.39
2022-11-15T10:57:32.768Z,23.43
2022-11-15T10:59:39.127Z,23.46
2022-11-15T11:01:43.671Z,23.52
2022-11-15T11:03:48.168Z,23.55
2022-11-15T11:05:52.512Z,23.55
2022-11-15T11:07:57.043Z,23.54
2022-11-15T11:10:01.564Z,23.54
2022-11-15T11:12:07.406Z,23.54
2022-11-15T11:14:11.773Z,23.54
2022-11-15T11:16:16.097Z,23.54
2022-11-15T11:18:20.409Z,23.55
2022-11-15T11:20:24.802Z,23.56
2022-11-15T11:22:29.196Z,23.57
2022-11-15T11:24:33.529Z,23.58
2022-11-15T11:26:37.875Z,23.59
2022-11-15T11:28:42.196Z,23.61
2022-11-15T11:30:46.553Z,23.64
2022-11-15T11:32:54.939Z,23.65
2022-11-15T11:34:59.422Z,23.67
2022-11-15T11:37:03.796Z,23.68
2022-11-15T11:39:08.105Z,23.68
2022-11-15T11:41:12.431Z,23.69
2022-11-15T11:43:16.762Z,23.71
2022-11-15T11:45:21.097Z,23.73
2022-11-15T11:47:25.457Z,23.73
2022-11-15T11:49:29.804Z,23.73
2022-11-15T11:51:34.170Z,23.72
2022-11-15T11:53:38.481Z,23.71
2022-11-15T11:55:42.796Z,23.69
2022-11-15T11:57:47.134Z,23.66
2022-11-15T11:59:51.481Z,23.65
2022-11-15T12:01:55.929Z,23.62
2022-11-15T12:04:00.684Z,23.6
2022-11-15T12:06:05.038Z,23.58
2022-11-15T12:08:09.423Z,23.56
2022-11-15T12:10:13.716Z,23.53
2022-11-15T12:12:18.082Z,23.52
2022-11-15T12:14:22.403Z,23.5
2022-11-15T12:16:26.779Z,23.48
2022-11-15T12:18:31.398Z,23.48
2022-11-15T12:20:37.026Z,23.45
2022-11-15T12:22:41.350Z,23.44
2022-11-15T12:24:45.733Z,23.43
2022-11-15T12:26:50.069Z,23.41
2022-11-15T12:29:06.763Z,23.4
2022-11-15T12:31:12.591Z,23.39
2022-11-15T12:33:16.954Z,23.38
2022-11-15T12:35:21.291Z,23.36
2022-11-15T12:37:25.718Z,23.36
2022-11-15T12:39:30.074Z,23.35
2022-11-15T12:41:34.721Z,23.34
2022-11-15T12:43:39.062Z,23.33
2022-11-15T12:45:43.389Z,23.33
2022-11-15T12:47:47.755Z,23.32
2022-11-15T12:49:52.140Z,23.35
2022-11-15T12:51:56.559Z,23.35
2022-11-15T12:54:00.975Z,23.35
2022-11-15T12:56:05.367Z,23.36
2022-11-15T12:58:09.718Z,23.36
2022-11-15T13:00:14.106Z,23.37
2022-11-15T13:02:18.513Z,23.4
2022-11-15T13:04:22.802Z,23.41
2022-11-15T13:06:27.219Z,23.43
2022-11-15T13:08:31.886Z,23.44
2022-11-15T13:10:36.772Z,23.47
2022-11-15T13:12:41.143Z,23.5
2022-11-15T13:14:45.489Z,23.53
2022-11-15T13:16:49.828Z,23.54
2022-11-15T13:18:54.179Z,23.55
2022-11-15T13:21:02.308Z,23.54
2022-11-15T13:23:07.182Z,23.56
2022-11-15T13:25:11.484Z,23.57
2022-11-15T13:27:15.848Z,23.58
2022-11-15T13:29:20.211Z,23.57
2022-11-15T13:31:24.646Z,23.57
2022-11-15T13:33:33.030Z,23.56
2022-11-15T13:35:40.219Z,23.54
2022-11-15T13:37:44.550Z,23.52
2022-11-15T13:39:48.906Z,23.49
2022-11-15T13:41:53.296Z,23.48
2022-11-15T13:43:57.682Z,23.47
2022-11-15T13:46:01.945Z,23.46
2022-11-15T13:48:06.306Z,23.47
2022-11-15T13:50:12.356Z,23.48
2022-11-15T13:52:17.072Z,23.48
2022-11-15T13:54:21.468Z,23.48
2022-11-15T13:56:25.970Z,23.5
2022-11-15T13:58:30.294Z,23.51
2022-11-15T14:00:35.279Z,23.54
2022-11-15T14:02:39.632Z,23.54
2022-11-15T14:04:43.987Z,23.54
2022-11-15T14:06:48.326Z,23.56
2022-11-15T14:08:52.970Z,23.56
2022-11-15T14:10:57.387Z,23.57
2022-11-15T14:13:01.673Z,23.56
2022-11-15T14:15:06.007Z,23.56
2022-11-15T14:17:10.346Z,23.55
2022-11-15T14:19:14.716Z,23.55
2022-11-15T14:21:19.160Z,23.55
2022-11-15T14:23:23.536Z,23.54
2022-11-15T14:25:27.937Z,23.55
2022-11-15T14:27:32.314Z,23.54
2022-11-15T14:29:36.752Z,23.54
2022-11-15T14:31:43.733Z,23.54
2022-11-15T14:33:48.350Z,23.55
2022-11-15T14:35:52.853Z,23.54
2022-11-15T14:37:57.294Z,23.52
2022-11-15T14:40:01.616Z,23.51
2022-11-15T14:42:05.944Z,23.51
2022-11-15T14:44:10.270Z,23.5
2022-11-15T14:46:14.566Z,23.51
2022-11-15T14:48:18.899Z,23.54
2022-11-15T14:50:23.234Z,23.57
2022-11-15T14:52:32.099Z,23.58
2022-11-15T14:54:36.850Z,23.61
2022-11-15T14:56:41.245Z,23.62
2022-11-15T14:58:45.555Z,23.63
2022-11-15T15:00:49.934Z,23.64
2022-11-15T15:02:54.306Z,23.66
2022-11-15T15:04:58.637Z,23.67
2022-11-15T15:07:03.098Z,23.69
2022-11-15T15:09:07.712Z,23.68
2022-11-15T15:11:12.075Z,23.69
2022-11-15T15:13:16.420Z,23.7
2022-11-15T15:15:20.742Z,23.71
2022-11-15T15:17:25.273Z,23.72
2022-11-15T15:19:29.799Z,23.72
2022-11-15T15:21:37.350Z,23.73
2022-11-15T15:23:42.159Z,23.73
2022-11-15T15:25:46.614Z,23.73
2022-11-15T15:27:51.120Z,23.74
2022-11-15T15:29:55.585Z,23.74
2022-11-15T15:31:59.913Z,23.75
2022-11-15T15:34:04.280Z,23.75
2022-11-15T15:36:08.616Z,23.77
2022-11-15T15:38:12.990Z,23.77
2022-11-15T15:40:17.320Z,23.76
2022-11-15T15:42:21.652Z,23.76
2022-11-15T15:44:25.962Z,23.76
2022-11-15T15:46:30.288Z,23.76
2022-11-15T15:48:34.969Z,23.75
2022-11-15T15:50:39.672Z,23.76
2022-11-15T15:52:44.019Z,23.76
2022-11-15T15:54:48.351Z,23.76
2022-11-15T15:56:56.130Z,23.75
2022-11-15T15:59:00.747Z,23.75
2022-11-15T16:01:05.220Z,23.76
2022-11-15T16:03:09.886Z,23.76
2022-11-15T16:05:14.187Z,23.77
2022-11-15T16:07:18.575Z,23.77
2022-11-15T16:09:23.767Z,23.79
2022-11-15T16:11:28.543Z,23.79
2022-11-15T16:13:32.913Z,23.81
2022-11-15T16:15:37.201Z,23.82
2022-11-15T16:17:41.527Z,23.84
2022-11-15T16:19:45.880Z,23.83
2022-11-15T16:21:50.186Z,23.83
2022-11-15T16:23:55.084Z,23.83
2022-11-15T16:25:59.427Z,23.84
2022-11-15T16:28:03.778Z,23.83
2022-11-15T16:30:08.089Z,23.83
2022-11-15T16:32:12.874Z,23.83
2022-11-15T16:34:17.469Z,23.85
2022-11-15T16:36:25.746Z,23.89
2022-11-15T16:38:34.708Z,23.89
2022-11-15T16:40:40.098Z,23.9
2022-11-15T16:42:44.492Z,23.89
2022-11-15T16:44:48.837Z,23.88
2022-11-15T16:46:53.173Z,23.89
2022-11-15T16:48:57.541Z,23.89
2022-11-15T16:51:01.886Z,23.9
2022-11-15T16:53:06.262Z,23.9
2022-11-15T16:55:10.589Z,23.92
2022-11-15T16:57:14.945Z,23.94
2022-11-15T16:59:19.330Z,23.95
2022-11-15T17:01:23.785Z,23.97
2022-11-15T17:03:28.528Z,23.98
2022-11-15T17:05:32.858Z,23.96
2022-11-15T17:07:37.247Z,23.96
2022-11-15T17:09:42.031Z,23.95
2022-11-15T17:11:46.342Z,23.97
2022-11-15T17:13:50.655Z,23.97
2022-11-15T17:15:55.008Z,23.97
2022-11-15T17:17:59.350Z,23.97
2022-11-15T17:20:03.754Z,23.98
2022-11-15T17:22:08.144Z,23.99
2022-11-15T17:24:12.480Z,24
2022-11-15T17:26:29.216Z,24.02
2022-11-15T17:28:43.332Z,24.02
2022-11-15T17:30:47.632Z,23.97
2022-11-15T17:32:52.002Z,23.9
2022-11-15T17:34:56.343Z,23.81
2022-11-15T17:37:00.661Z,23.75
2022-11-15T17:39:05.021Z,23.69
2022-11-15T17:41:09.374Z,23.65
2022-11-15T17:43:13.687Z,23.61
2022-11-15T17:45:18.007Z,23.58
2022-11-15T17:47:22.343Z,23.55
2022-11-15T17:49:26.744Z,23.51
2022-11-15T17:51:31.194Z,23.51
2022-11-15T17:53:35.520Z,23.48
2022-11-15T17:55:39.883Z,23.45
2022-11-15T17:57:44.196Z,23.43
2022-11-15T17:59:48.560Z,23.41
2022-11-15T18:01:52.938Z,23.41
2022-11-15T18:03:57.322Z,23.41
2022-11-15T18:06:01.681Z,23.4
2022-11-15T18:08:05.985Z,23.41
2022-11-15T18:10:18.007Z,23.39
2022-11-15T18:12:22.380Z,23.34
2022-11-15T18:14:26.717Z,23.35
2022-11-15T18:16:31.068Z,23.34
2022-11-15T18:18:35.669Z,23.34
2022-11-15T18:20:40.511Z,23.31
2022-11-15T18:22:44.842Z,23.3
2022-11-15T18:24:49.218Z,23.28
2022-11-15T18:26:53.569Z,23.26
2022-11-15T18:28:57.913Z,23.25
2022-11-15T18:31:02.272Z,23.24
2022-11-15T18:33:06.946Z,23.22
2022-11-15T18:35:11.354Z,23.22
2022-11-15T18:37:15.956Z,23.19
2022-11-15T18:39:20.349Z,23.17
2022-11-15T18:41:24.709Z,23.13
2022-11-15T18:43:29.146Z,23.12
2022-11-15T18:45:34.203Z,23.12
2022-11-15T18:47:38.616Z,23.1
2022-11-15T18:49:42.950Z,23.08
2022-11-15T18:51:47.347Z,23.06
2022-11-15T18:53:51.655Z,23.04
2022-11-15T18:55:56.023Z,23.02
2022-11-15T18:58:00.349Z,23.02
2022-11-15T19:00:04.944Z,22.99
2022-11-15T19:02:09.284Z,22.98
2022-11-15T19:04:13.606Z,22.94
2022-11-15T19:06:17.985Z,22.89
2022-11-15T19:08:22.784Z,22.89
2022-11-15T19:10:27.124Z,22.88
2022-11-15T19:12:31.493Z,22.85
2022-11-15T19:14:35.864Z,22.85
2022-11-15T19:16:40.360Z,22.84
2022-11-15T19:18:44.698Z,22.81
2022-11-15T19:20:49.076Z,22.79
2022-11-15T19:22:53.426Z,22.77
2022-11-15T19:24:57.763Z,22.74
2022-11-15T19:27:02.160Z,22.73
2022-11-15T19:29:06.520Z,22.71
2022-11-15T19:31:10.968Z,22.7
2022-11-15T19:33:15.311Z,22.69
2022-11-15T19:35:19.704Z,22.64
2022-11-15T19:37:24.071Z,22.62
2022-11-15T19:39:28.435Z,22.6
2022-11-15T19:41:32.748Z,22.6
2022-11-15T19:43:37.104Z,22.61
2022-11-15T19:45:41.449Z,22.61
2022-11-15T19:47:45.799Z,22.64
2022-11-15T19:49:50.131Z,22.67
2022-11-15T19:51:54.493Z,22.67
2022-11-15T19:53:58.835Z,22.68
2022-11-15T19:56:03.210Z,22.7
2022-11-15T19:58:07.703Z,22.74
2022-11-15T20:00:12.162Z,22.75
2022-11-15T20:02:16.502Z,22.75
2022-11-15T20:04:20.850Z,22.77
2022-11-15T20:06:25.196Z,22.8
2022-11-15T20:08:29.574Z,22.8
2022-11-15T20:10:34.959Z,22.79
2022-11-15T20:12:39.349Z,22.77
2022-11-15T20:14:43.701Z,22.76
2022-11-15T20:16:53.019Z,22.75
2022-11-15T20:18:58.544Z,22.73
2022-11-15T20:21:02.888Z,22.73
2022-11-15T20:23:07.281Z,22.73
2022-11-15T20:25:11.613Z,22.74
2022-11-15T20:27:15.956Z,22.73
2022-11-15T20:29:20.426Z,22.74
2022-11-15T20:31:24.838Z,22.71
2022-11-15T20:33:29.188Z,22.7
2022-11-15T20:35:33.499Z,22.7
2022-11-15T20:37:37.952Z,22.72
2022-11-15T20:39:42.302Z,22.77
2022-11-15T20:41:46.652Z,22.75
2022-11-15T20:43:51.035Z,22.76
2022-11-15T20:45:55.370Z,22.76
2022-11-15T20:47:59.702Z,22.75
2022-11-15T20:50:21.097Z,22.72
2022-11-15T20:52:46.421Z,22.7
2022-11-15T20:54:50.892Z,22.66
2022-11-15T20:56:55.254Z,22.61
2022-11-15T20:58:59.674Z,22.6
2022-11-15T21:01:04.158Z,22.59
2022-11-15T21:03:09.057Z,22.55
2022-11-15T21:05:13.449Z,22.55
2022-11-15T21:07:17.902Z,22.55
2022-11-15T21:09:22.537Z,22.54
2022-11-15T21:11:26.892Z,22.54
2022-11-15T21:13:31.231Z,22.52
2022-11-15T21:15:35.578Z,22.52
2022-11-15T21:17:39.940Z,22.53
2022-11-15T21:19:44.267Z,22.53
2022-11-15T21:21:48.687Z,22.54
2022-11-15T21:23:53.049Z,22.54
2022-11-15T21:25:57.436Z,22.55
2022-11-15T21:28:01.765Z,22.56
2022-11-15T21:30:06.099Z,22.57
2022-11-15T21:32:10.639Z,22.56
2022-11-15T21:34:14.927Z,22.53
2022-11-15T21:36:19.552Z,22.53
2022-11-15T21:38:23.847Z,22.55
2022-11-15T21:40:28.218Z,22.56
2022-11-15T21:42:32.569Z,22.56
2022-11-15T21:44:36.881Z,22.55
2022-11-15T21:46:41.199Z,22.56
2022-11-15T21:48:45.521Z,22.55
2022-11-15T21:50:49.870Z,22.55
2022-11-15T21:52:54.190Z,22.5
2022-11-15T21:54:58.509Z,22.48
2022-11-15T21:57:02.847Z,22.46
2022-11-15T21:59:07.478Z,22.47
2022-11-15T22:01:11.877Z,22.51
2022-11-15T22:03:16.538Z,22.53
2022-11-15T22:05:20.892Z,22.55
2022-11-15T22:07:25.380Z,22.58
2022-11-15T22:09:30.133Z,22.55
2022-11-15T22:11:34.691Z,22.53
2022-11-15T22:13:39.126Z,22.49
2022-11-15T22:15:43.826Z,22.45
2022-11-15T22:17:48.261Z,22.48
2022-11-15T22:19:53.163Z,22.49
2022-11-15T22:21:57.640Z,22.48
2022-11-15T22:24:02.426Z,22.48
2022-11-15T22:26:06.884Z,22.47
2022-11-15T22:28:11.370Z,22.45
2022-11-15T22:30:15.833Z,22.42
2022-11-15T22:32:20.306Z,22.41
2022-11-15T22:34:24.744Z,22.38
2022-11-15T22:36:38.856Z,22.37
2022-11-15T22:39:23.415Z,22.34
2022-11-15T22:41:27.957Z,22.32
2022-11-15T22:43:32.376Z,22.31
2022-11-15T22:45:36.830Z,22.29
2022-11-15T22:47:41.303Z,22.28
2022-11-15T22:49:45.765Z,22.26
2022-11-15T22:51:50.184Z,22.24
2022-11-15T22:53:54.584Z,22.23
2022-11-15T22:55:59.039Z,22.22
2022-11-15T22:58:03.497Z,22.23
2022-11-15T23:00:07.967Z,22.23
2022-11-15T23:02:12.396Z,22.22
2022-11-15T23:04:16.954Z,22.22
2022-11-15T23:06:21.424Z,22.21
2022-11-15T23:08:25.863Z,22.2
2022-11-15T23:10:30.283Z,22.19
2022-11-15T23:12:34.858Z,22.19
2022-11-15T23:14:39.370Z,22.18
2022-11-15T23:16:43.814Z,22.16
2022-11-15T23:18:48.245Z,22.18
2022-11-15T23:20:52.679Z,22.17
2022-11-15T23:22:57.102Z,22.17
2022-11-15T23:25:01.534Z,22.17
2022-11-15T23:27:05.996Z,22.15
2022-11-15T23:29:10.412Z,22.14
2022-11-15T23:31:14.826Z,22.13
2022-11-15T23:33:19.291Z,22.12
2022-11-15T23:35:23.711Z,22.12
2022-11-15T23:37:28.176Z,22.11
2022-11-15T23:39:32.666Z,22.1
2022-11-15T23:41:37.078Z,22.1
2022-11-15T23:43:41.559Z,22.09
2022-11-15T23:45:45.979Z,22.08
2022-11-15T23:47:50.488Z,22.08
2022-11-15T23:50:03.549Z,22.07
2022-11-15T23:52:07.971Z,22.07
2022-11-15T23:54:12.415Z,22.06
2022-11-15T23:56:16.880Z,22.05
2022-11-15T23:58:21.353Z,22.03
